sensor_id;sensor_type;location;lat;lon;timestamp;temperature;humidity
23803;DHT22;12082;51.786;6.018;2023-02-28T00:00:44;-2.50;99.90
23803;DHT22;12082;51.786;6.018;2023-02-28T00:03:09;-2.40;99.90
23803;DHT22;12082;51.786;6.018;2023-02-28T00:05:35;-2.50;99.90
23803;DHT22;12082;51.786;6.018;2023-02-28T00:08:04;-2.90;99.90
23803;DHT22;12082;51.786;6.018;2023-02-28T00:10:30;-2.50;99.90
23803;DHT22;12082;51.786;6.018;2023-02-28T00:13:01;-2.50;99.90
23803;DHT22;12082;51.786;6.018;2023-02-28T00:15:27;-2.50;99.90
23803;DHT22;12082;51.786;6.018;2023-02-28T00:17:52;-2.40;99.90
23803;DHT22;12082;51.786;6.018;2023-02-28T00:20:19;-2.40;99.90
23803;DHT22;12082;51.786;6.018;2023-02-28T00:22:48;-2.50;99.90
23803;DHT22;12082;51.786;6.018;2023-02-28T00:25:16;-2.50;99.90
23803;DHT22;12082;51.786;6.018;2023-02-28T00:27:42;-2.50;99.90
23803;DHT22;12082;51.786;6.018;2023-02-28T00:30:11;-2.30;99.90
23803;DHT22;12082;51.786;6.018;2023-02-28T00:32:37;-2.60;99.90
23803;DHT22;12082;51.786;6.018;2023-02-28T00:35:04;-2.60;99.90
23803;DHT22;12082;51.786;6.018;2023-02-28T00:37:29;-2.60;99.90
23803;DHT22;12082;51.786;6.018;2023-02-28T00:39:55;-2.60;99.90
23803;DHT22;12082;51.786;6.018;2023-02-28T00:42:21;-2.60;99.90
23803;DHT22;12082;51.786;6.018;2023-02-28T00:44:47;-2.60;99.90
23803;DHT22;12082;51.786;6.018;2023-02-28T00:47:12;-2.50;99.90
23803;DHT22;12082;51.786;6.018;2023-02-28T00:49:38;-2.40;99.90
23803;DHT22;12082;51.786;6.018;2023-02-28T00:52:03;-2.50;99.90
23803;DHT22;12082;51.786;6.018;2023-02-28T00:54:29;-2.40;99.90
23803;DHT22;12082;51.786;6.018;2023-02-28T00:56:55;-2.40;99.90
23803;DHT22;12082;51.786;6.018;2023-02-28T00:59:21;-2.40;99.90
23803;DHT22;12082;51.786;6.018;2023-02-28T01:01:47;-2.50;99.90
23803;DHT22;12082;51.786;6.018;2023-02-28T01:04:13;-2.40;99.90
23803;DHT22;12082;51.786;6.018;2023-02-28T01:06:39;-2.50;99.90
23803;DHT22;12082;51.786;6.018;2023-02-28T01:09:06;-2.50;99.90
23803;DHT22;12082;51.786;6.018;2023-02-28T01:11:32;-2.40;99.90
23803;DHT22;12082;51.786;6.018;2023-02-28T01:13:58;-2.40;99.90
23803;DHT22;12082;51.786;6.018;2023-02-28T01:16:24;-2.50;99.90
23803;DHT22;12082;51.786;6.018;2023-02-28T01:18:50;-2.40;99.90
23803;DHT22;12082;51.786;6.018;2023-02-28T01:21:17;-2.50;99.90
23803;DHT22;12082;51.786;6.018;2023-02-28T01:23:43;-2.40;99.90
23803;DHT22;12082;51.786;6.018;2023-02-28T01:26:15;-2.40;99.90
23803;DHT22;12082;51.786;6.018;2023-02-28T01:28:41;-2.30;99.90
23803;DHT22;12082;51.786;6.018;2023-02-28T01:31:07;-2.30;99.90
23803;DHT22;12082;51.786;6.018;2023-02-28T01:33:33;-2.20;99.90
23803;DHT22;12082;51.786;6.018;2023-02-28T01:36:05;-2.10;99.90
23803;DHT22;12082;51.786;6.018;2023-02-28T01:38:31;-2.00;99.90
23803;DHT22;12082;51.786;6.018;2023-02-28T01:40:57;-2.00;99.90
23803;DHT22;12082;51.786;6.018;2023-02-28T01:43:25;-2.10;99.90
23803;DHT22;12082;51.786;6.018;2023-02-28T01:45:52;-1.90;99.90
23803;DHT22;12082;51.786;6.018;2023-02-28T01:48:19;-1.80;99.90
23803;DHT22;12082;51.786;6.018;2023-02-28T01:50:46;-1.80;99.90
23803;DHT22;12082;51.786;6.018;2023-02-28T01:53:19;-1.80;99.90
23803;DHT22;12082;51.786;6.018;2023-02-28T01:55:50;-1.70;99.90
23803;DHT22;12082;51.786;6.018;2023-02-28T01:58:17;-1.60;99.90
23803;DHT22;12082;51.786;6.018;2023-02-28T02:00:43;-1.50;99.90
23803;DHT22;12082;51.786;6.018;2023-02-28T02:03:12;-1.50;99.90
23803;DHT22;12082;51.786;6.018;2023-02-28T02:05:39;-1.50;99.90
23803;DHT22;12082;51.786;6.018;2023-02-28T02:08:09;-1.70;99.90
23803;DHT22;12082;51.786;6.018;2023-02-28T02:10:42;-1.40;99.90
23803;DHT22;12082;51.786;6.018;2023-02-28T02:13:19;-1.40;99.90
23803;DHT22;12082;51.786;6.018;2023-02-28T02:26:39;-1.30;99.90
23803;DHT22;12082;51.786;6.018;2023-02-28T02:35:47;-1.20;99.90
23803;DHT22;12082;51.786;6.018;2023-02-28T02:38:31;-1.20;99.90
23803;DHT22;12082;51.786;6.018;2023-02-28T02:43:40;-1.10;99.90
23803;DHT22;12082;51.786;6.018;2023-02-28T02:48:43;-1.20;99.90
23803;DHT22;12082;51.786;6.018;2023-02-28T02:51:14;-1.20;99.90
23803;DHT22;12082;51.786;6.018;2023-02-28T02:53:48;-1.20;99.90
23803;DHT22;12082;51.786;6.018;2023-02-28T02:56:18;-1.60;99.90
23803;DHT22;12082;51.786;6.018;2023-02-28T02:58:47;-1.10;99.90
23803;DHT22;12082;51.786;6.018;2023-02-28T03:01:22;-1.10;99.90
23803;DHT22;12082;51.786;6.018;2023-02-28T03:04:06;-1.00;99.90
23803;DHT22;12082;51.786;6.018;2023-02-28T03:06:33;-1.00;99.90
23803;DHT22;12082;51.786;6.018;2023-02-28T03:09:00;-1.00;99.90
23803;DHT22;12082;51.786;6.018;2023-02-28T03:11:25;-1.00;99.90
23803;DHT22;12082;51.786;6.018;2023-02-28T03:19:52;-0.90;99.90
23803;DHT22;12082;51.786;6.018;2023-02-28T03:22:43;-0.80;99.90
23803;DHT22;12082;51.786;6.018;2023-02-28T03:25:45;-0.90;99.90
23803;DHT22;12082;51.786;6.018;2023-02-28T03:28:15;-0.80;99.90
23803;DHT22;12082;51.786;6.018;2023-02-28T03:30:54;-0.90;99.90
23803;DHT22;12082;51.786;6.018;2023-02-28T03:35:57;-0.80;99.90
23803;DHT22;12082;51.786;6.018;2023-02-28T03:41:22;-0.80;99.90
23803;DHT22;12082;51.786;6.018;2023-02-28T03:43:58;-0.80;99.90
23803;DHT22;12082;51.786;6.018;2023-02-28T03:46:27;-0.80;99.90
23803;DHT22;12082;51.786;6.018;2023-02-28T03:49:03;-0.70;99.90
23803;DHT22;12082;51.786;6.018;2023-02-28T03:51:32;-0.80;99.90
23803;DHT22;12082;51.786;6.018;2023-02-28T03:54:02;-0.70;99.90
23803;DHT22;12082;51.786;6.018;2023-02-28T03:56:39;-0.60;99.90
23803;DHT22;12082;51.786;6.018;2023-02-28T03:59:39;-0.60;99.90
23803;DHT22;12082;51.786;6.018;2023-02-28T04:02:07;-0.60;99.90
23803;DHT22;12082;51.786;6.018;2023-02-28T04:04:33;-0.60;99.90
23803;DHT22;12082;51.786;6.018;2023-02-28T04:07:05;-0.60;99.90
23803;DHT22;12082;51.786;6.018;2023-02-28T04:09:31;-0.50;99.90
23803;DHT22;12082;51.786;6.018;2023-02-28T04:11:57;-0.50;99.90
23803;DHT22;12082;51.786;6.018;2023-02-28T04:14:22;-0.50;99.90
23803;DHT22;12082;51.786;6.018;2023-02-28T04:16:48;-0.40;99.90
23803;DHT22;12082;51.786;6.018;2023-02-28T04:19:14;-0.50;99.90
23803;DHT22;12082;51.786;6.018;2023-02-28T04:21:42;-0.30;99.90
23803;DHT22;12082;51.786;6.018;2023-02-28T04:24:14;-0.40;99.90
23803;DHT22;12082;51.786;6.018;2023-02-28T04:26:41;-0.40;99.90
23803;DHT22;12082;51.786;6.018;2023-02-28T04:29:10;-0.30;99.90
23803;DHT22;12082;51.786;6.018;2023-02-28T04:31:36;-0.30;99.90
23803;DHT22;12082;51.786;6.018;2023-02-28T04:34:02;-0.30;99.90
23803;DHT22;12082;51.786;6.018;2023-02-28T04:36:28;-0.40;99.90
23803;DHT22;12082;51.786;6.018;2023-02-28T04:38:54;-0.30;99.90
23803;DHT22;12082;51.786;6.018;2023-02-28T04:41:20;-0.30;99.90
23803;DHT22;12082;51.786;6.018;2023-02-28T04:43:46;-0.30;99.90
23803;DHT22;12082;51.786;6.018;2023-02-28T04:46:11;-0.30;99.90
23803;DHT22;12082;51.786;6.018;2023-02-28T04:51:10;-0.30;99.90
23803;DHT22;12082;51.786;6.018;2023-02-28T04:53:37;-0.20;99.90
23803;DHT22;12082;51.786;6.018;2023-02-28T04:56:03;-0.30;99.90
23803;DHT22;12082;51.786;6.018;2023-02-28T04:58:29;-0.10;99.90
23803;DHT22;12082;51.786;6.018;2023-02-28T05:01:05;-0.10;99.90
23803;DHT22;12082;51.786;6.018;2023-02-28T05:03:40;-0.10;99.90
23803;DHT22;12082;51.786;6.018;2023-02-28T05:06:07;-0.20;99.90
23803;DHT22;12082;51.786;6.018;2023-02-28T05:08:33;-0.10;99.90
23803;DHT22;12082;51.786;6.018;2023-02-28T05:10:59;-0.10;99.90
23803;DHT22;12082;51.786;6.018;2023-02-28T05:13:26;0.30;99.90
23803;DHT22;12082;51.786;6.018;2023-02-28T05:15:52;-0.30;99.90
23803;DHT22;12082;51.786;6.018;2023-02-28T05:18:18;-0.20;99.90
23803;DHT22;12082;51.786;6.018;2023-02-28T05:20:43;0.00;99.90
23803;DHT22;12082;51.786;6.018;2023-02-28T05:23:11;-0.10;99.90
23803;DHT22;12082;51.786;6.018;2023-02-28T05:25:38;-0.20;99.90
23803;DHT22;12082;51.786;6.018;2023-02-28T05:28:04;-0.10;99.90
23803;DHT22;12082;51.786;6.018;2023-02-28T05:30:29;-0.10;99.90
23803;DHT22;12082;51.786;6.018;2023-02-28T05:32:57;-0.30;99.90
23803;DHT22;12082;51.786;6.018;2023-02-28T05:35:23;-0.20;99.90
23803;DHT22;12082;51.786;6.018;2023-02-28T05:37:49;-0.20;99.90
23803;DHT22;12082;51.786;6.018;2023-02-28T05:40:15;-0.20;99.90
23803;DHT22;12082;51.786;6.018;2023-02-28T05:42:41;-0.20;99.90
23803;DHT22;12082;51.786;6.018;2023-02-28T05:45:07;-0.20;99.90
23803;DHT22;12082;51.786;6.018;2023-02-28T05:47:33;-0.10;99.90
23803;DHT22;12082;51.786;6.018;2023-02-28T05:49:59;-0.10;99.90
23803;DHT22;12082;51.786;6.018;2023-02-28T05:52:25;-0.20;99.90
23803;DHT22;12082;51.786;6.018;2023-02-28T05:54:51;-0.50;99.90
23803;DHT22;12082;51.786;6.018;2023-02-28T05:57:16;-0.50;99.90
23803;DHT22;12082;51.786;6.018;2023-02-28T05:59:42;-0.20;99.90
23803;DHT22;12082;51.786;6.018;2023-02-28T06:02:12;-0.30;99.90
23803;DHT22;12082;51.786;6.018;2023-02-28T06:04:39;-0.30;99.90
23803;DHT22;12082;51.786;6.018;2023-02-28T06:07:06;-0.20;99.90
23803;DHT22;12082;51.786;6.018;2023-02-28T06:09:32;-0.30;99.90
23803;DHT22;12082;51.786;6.018;2023-02-28T06:11:59;-0.20;99.90
23803;DHT22;12082;51.786;6.018;2023-02-28T06:14:24;-0.30;99.90
23803;DHT22;12082;51.786;6.018;2023-02-28T06:16:50;-0.30;99.90
23803;DHT22;12082;51.786;6.018;2023-02-28T06:19:16;-0.30;99.90
23803;DHT22;12082;51.786;6.018;2023-02-28T06:21:42;-0.10;99.90
23803;DHT22;12082;51.786;6.018;2023-02-28T06:24:08;-0.20;99.90
23803;DHT22;12082;51.786;6.018;2023-02-28T06:26:34;-0.10;99.90
23803;DHT22;12082;51.786;6.018;2023-02-28T06:29:00;-0.30;99.90
23803;DHT22;12082;51.786;6.018;2023-02-28T06:31:26;-0.20;99.90
23803;DHT22;12082;51.786;6.018;2023-02-28T06:33:54;-0.20;99.90
23803;DHT22;12082;51.786;6.018;2023-02-28T06:36:20;-0.20;99.90
23803;DHT22;12082;51.786;6.018;2023-02-28T06:38:46;-0.20;99.90
23803;DHT22;12082;51.786;6.018;2023-02-28T06:41:16;-0.10;99.90
23803;DHT22;12082;51.786;6.018;2023-02-28T06:43:42;-0.20;99.90
23803;DHT22;12082;51.786;6.018;2023-02-28T06:46:10;-0.50;99.90
23803;DHT22;12082;51.786;6.018;2023-02-28T06:48:36;-0.10;99.90
23803;DHT22;12082;51.786;6.018;2023-02-28T06:51:04;-0.10;99.90
23803;DHT22;12082;51.786;6.018;2023-02-28T06:53:30;-0.10;99.90
23803;DHT22;12082;51.786;6.018;2023-02-28T06:55:56;0.30;99.90
23803;DHT22;12082;51.786;6.018;2023-02-28T06:58:22;0.10;99.90
23803;DHT22;12082;51.786;6.018;2023-02-28T07:00:51;0.10;99.90
23803;DHT22;12082;51.786;6.018;2023-02-28T07:03:17;0.10;99.90
23803;DHT22;12082;51.786;6.018;2023-02-28T07:05:43;0.30;99.90
23803;DHT22;12082;51.786;6.018;2023-02-28T07:08:09;0.20;99.90
23803;DHT22;12082;51.786;6.018;2023-02-28T07:10:37;0.30;99.90
23803;DHT22;12082;51.786;6.018;2023-02-28T07:13:04;0.30;99.90
23803;DHT22;12082;51.786;6.018;2023-02-28T07:15:29;0.30;99.90
23803;DHT22;12082;51.786;6.018;2023-02-28T07:17:55;0.30;99.90
23803;DHT22;12082;51.786;6.018;2023-02-28T07:20:22;0.10;99.90
23803;DHT22;12082;51.786;6.018;2023-02-28T07:22:48;0.20;99.90
23803;DHT22;12082;51.786;6.018;2023-02-28T07:25:21;0.20;99.90
23803;DHT22;12082;51.786;6.018;2023-02-28T07:27:46;0.20;99.90
23803;DHT22;12082;51.786;6.018;2023-02-28T07:30:12;0.20;99.90
23803;DHT22;12082;51.786;6.018;2023-02-28T07:32:38;0.20;99.90
23803;DHT22;12082;51.786;6.018;2023-02-28T07:35:04;-0.20;99.90
23803;DHT22;12082;51.786;6.018;2023-02-28T07:37:30;0.50;99.90
23803;DHT22;12082;51.786;6.018;2023-02-28T07:39:57;0.70;99.90
23803;DHT22;12082;51.786;6.018;2023-02-28T07:42:22;1.10;99.90
23803;DHT22;12082;51.786;6.018;2023-02-28T07:44:48;1.30;99.90
23803;DHT22;12082;51.786;6.018;2023-02-28T07:47:14;1.60;99.90
23803;DHT22;12082;51.786;6.018;2023-02-28T07:49:39;1.80;99.90
23803;DHT22;12082;51.786;6.018;2023-02-28T07:52:06;2.00;99.90
23803;DHT22;12082;51.786;6.018;2023-02-28T07:54:32;2.30;99.90
23803;DHT22;12082;51.786;6.018;2023-02-28T07:56:58;2.40;99.90
23803;DHT22;12082;51.786;6.018;2023-02-28T07:59:24;2.60;99.90
23803;DHT22;12082;51.786;6.018;2023-02-28T08:01:50;2.80;99.90
23803;DHT22;12082;51.786;6.018;2023-02-28T08:04:17;3.10;99.90
23803;DHT22;12082;51.786;6.018;2023-02-28T08:06:43;3.30;99.90
23803;DHT22;12082;51.786;6.018;2023-02-28T08:09:08;3.50;99.90
23803;DHT22;12082;51.786;6.018;2023-02-28T08:11:34;3.80;99.90
23803;DHT22;12082;51.786;6.018;2023-02-28T08:14:00;3.90;99.90
23803;DHT22;12082;51.786;6.018;2023-02-28T08:16:25;4.40;99.90
23803;DHT22;12082;51.786;6.018;2023-02-28T08:18:51;4.70;99.90
23803;DHT22;12082;51.786;6.018;2023-02-28T08:21:18;4.80;99.90
23803;DHT22;12082;51.786;6.018;2023-02-28T08:23:46;5.00;99.90
23803;DHT22;12082;51.786;6.018;2023-02-28T08:26:11;4.70;99.90
23803;DHT22;12082;51.786;6.018;2023-02-28T08:28:37;4.50;99.90
23803;DHT22;12082;51.786;6.018;2023-02-28T08:31:07;4.30;99.90
23803;DHT22;12082;51.786;6.018;2023-02-28T08:33:33;4.80;99.90
23803;DHT22;12082;51.786;6.018;2023-02-28T08:36:01;5.50;99.90
23803;DHT22;12082;51.786;6.018;2023-02-28T08:38:27;5.80;99.90
23803;DHT22;12082;51.786;6.018;2023-02-28T08:41:06;6.80;99.90
23803;DHT22;12082;51.786;6.018;2023-02-28T08:43:33;7.10;99.90
23803;DHT22;12082;51.786;6.018;2023-02-28T08:45:59;7.00;99.90
23803;DHT22;12082;51.786;6.018;2023-02-28T08:48:26;6.90;99.90
23803;DHT22;12082;51.786;6.018;2023-02-28T08:50:56;6.70;99.90
23803;DHT22;12082;51.786;6.018;2023-02-28T08:53:21;6.30;99.90
23803;DHT22;12082;51.786;6.018;2023-02-28T08:55:47;6.10;99.90
23803;DHT22;12082;51.786;6.018;2023-02-28T08:58:20;5.90;99.90
23803;DHT22;12082;51.786;6.018;2023-02-28T09:00:45;5.50;99.90
23803;DHT22;12082;51.786;6.018;2023-02-28T09:03:11;5.20;99.90
23803;DHT22;12082;51.786;6.018;2023-02-28T09:05:36;5.10;99.90
23803;DHT22;12082;51.786;6.018;2023-02-28T09:08:02;4.90;99.90
23803;DHT22;12082;51.786;6.018;2023-02-28T09:10:27;5.10;99.90
23803;DHT22;12082;51.786;6.018;2023-02-28T09:12:53;5.10;99.90
23803;DHT22;12082;51.786;6.018;2023-02-28T09:15:18;5.00;99.90
23803;DHT22;12082;51.786;6.018;2023-02-28T09:17:44;4.90;99.90
23803;DHT22;12082;51.786;6.018;2023-02-28T09:20:10;4.90;99.90
23803;DHT22;12082;51.786;6.018;2023-02-28T09:22:36;5.00;99.90
23803;DHT22;12082;51.786;6.018;2023-02-28T09:25:01;5.10;99.90
23803;DHT22;12082;51.786;6.018;2023-02-28T09:27:27;5.10;99.90
23803;DHT22;12082;51.786;6.018;2023-02-28T09:29:52;4.80;99.90
23803;DHT22;12082;51.786;6.018;2023-02-28T09:32:18;4.90;99.90
23803;DHT22;12082;51.786;6.018;2023-02-28T09:34:43;5.00;99.90
23803;DHT22;12082;51.786;6.018;2023-02-28T09:37:09;4.90;99.90
23803;DHT22;12082;51.786;6.018;2023-02-28T09:39:34;4.80;99.90
23803;DHT22;12082;51.786;6.018;2023-02-28T09:42:02;5.00;99.90
23803;DHT22;12082;51.786;6.018;2023-02-28T09:44:33;5.10;99.90
23803;DHT22;12082;51.786;6.018;2023-02-28T09:47:29;5.40;99.90
23803;DHT22;12082;51.786;6.018;2023-02-28T09:49:59;4.90;99.90
23803;DHT22;12082;51.786;6.018;2023-02-28T09:52:29;4.80;99.90
23803;DHT22;12082;51.786;6.018;2023-02-28T09:54:56;4.90;99.90
23803;DHT22;12082;51.786;6.018;2023-02-28T09:57:31;4.70;99.90
23803;DHT22;12082;51.786;6.018;2023-02-28T10:03:24;4.90;99.90
23803;DHT22;12082;51.786;6.018;2023-02-28T10:05:54;4.90;99.90
23803;DHT22;12082;51.786;6.018;2023-02-28T10:08:40;4.70;99.90
23803;DHT22;12082;51.786;6.018;2023-02-28T10:11:13;5.00;99.90
23803;DHT22;12082;51.786;6.018;2023-02-28T10:13:56;5.10;99.90
23803;DHT22;12082;51.786;6.018;2023-02-28T10:16:37;4.90;99.90
23803;DHT22;12082;51.786;6.018;2023-02-28T10:19:16;4.80;99.90
23803;DHT22;12082;51.786;6.018;2023-02-28T10:21:48;4.90;99.90
23803;DHT22;12082;51.786;6.018;2023-02-28T10:24:23;4.80;99.90
23803;DHT22;12082;51.786;6.018;2023-02-28T10:26:52;4.90;99.90
23803;DHT22;12082;51.786;6.018;2023-02-28T10:29:21;4.90;99.90
23803;DHT22;12082;51.786;6.018;2023-02-28T10:31:46;5.10;99.90
23803;DHT22;12082;51.786;6.018;2023-02-28T10:34:12;5.10;99.90
23803;DHT22;12082;51.786;6.018;2023-02-28T10:36:39;4.90;99.90
23803;DHT22;12082;51.786;6.018;2023-02-28T11:01:52;5.30;99.90
23803;DHT22;12082;51.786;6.018;2023-02-28T11:07:00;5.40;99.90
23803;DHT22;12082;51.786;6.018;2023-02-28T11:09:38;5.50;99.90
23803;DHT22;12082;51.786;6.018;2023-02-28T11:14:37;5.80;99.90
23803;DHT22;12082;51.786;6.018;2023-02-28T11:17:29;5.30;99.60
23803;DHT22;12082;51.786;6.018;2023-02-28T11:20:05;5.30;99.90
23803;DHT22;12082;51.786;6.018;2023-02-28T11:22:39;5.30;99.90
23803;DHT22;12082;51.786;6.018;2023-02-28T11:25:23;5.50;99.90
23803;DHT22;12082;51.786;6.018;2023-02-28T11:27:51;5.40;99.90
23803;DHT22;12082;51.786;6.018;2023-02-28T11:30:24;5.40;99.90
23803;DHT22;12082;51.786;6.018;2023-02-28T11:32:50;5.50;99.90
23803;DHT22;12082;51.786;6.018;2023-02-28T11:35:32;5.50;99.90
23803;DHT22;12082;51.786;6.018;2023-02-28T11:38:00;5.30;99.90
23803;DHT22;12082;51.786;6.018;2023-02-28T11:40:46;5.30;97.10
23803;DHT22;12082;51.786;6.018;2023-02-28T11:46:29;5.10;99.90
23803;DHT22;12082;51.786;6.018;2023-02-28T11:51:53;5.40;99.90
23803;DHT22;12082;51.786;6.018;2023-02-28T12:02:57;5.60;99.90
23803;DHT22;12082;51.786;6.018;2023-02-28T12:05:46;5.70;99.90
23803;DHT22;12082;51.786;6.018;2023-02-28T12:14:23;6.00;99.90
23803;DHT22;12082;51.786;6.018;2023-02-28T12:17:18;6.00;99.90
23803;DHT22;12082;51.786;6.018;2023-02-28T12:29:23;6.40;99.90
23803;DHT22;12082;51.786;6.018;2023-02-28T12:32:13;6.60;99.90
23803;DHT22;12082;51.786;6.018;2023-02-28T12:34:46;6.50;99.90
23803;DHT22;12082;51.786;6.018;2023-02-28T12:40:22;6.70;99.90
23803;DHT22;12082;51.786;6.018;2023-02-28T12:42:56;6.60;99.90
23803;DHT22;12082;51.786;6.018;2023-02-28T12:45:26;6.60;99.90
23803;DHT22;12082;51.786;6.018;2023-02-28T12:47:57;6.70;99.90
23803;DHT22;12082;51.786;6.018;2023-02-28T12:50:24;6.40;99.90
23803;DHT22;12082;51.786;6.018;2023-02-28T12:55:34;6.40;99.90
23803;DHT22;12082;51.786;6.018;2023-02-28T12:58:23;6.40;99.90
23803;DHT22;12082;51.786;6.018;2023-02-28T13:01:13;7.40;99.90
23803;DHT22;12082;51.786;6.018;2023-02-28T13:09:12;6.70;99.90
23803;DHT22;12082;51.786;6.018;2023-02-28T13:11:43;6.60;99.90
23803;DHT22;12082;51.786;6.018;2023-02-28T13:14:35;7.10;99.90
23803;DHT22;12082;51.786;6.018;2023-02-28T13:19:34;6.70;99.90
23803;DHT22;12082;51.786;6.018;2023-02-28T13:22:01;6.80;99.90
23803;DHT22;12082;51.786;6.018;2023-02-28T13:24:43;6.70;99.90
23803;DHT22;12082;51.786;6.018;2023-02-28T13:29:37;6.80;99.90
23803;DHT22;12082;51.786;6.018;2023-02-28T13:34:36;6.90;99.90
23803;DHT22;12082;51.786;6.018;2023-02-28T13:47:43;7.20;99.90
23803;DHT22;12082;51.786;6.018;2023-02-28T13:55:44;7.20;99.90
23803;DHT22;12082;51.786;6.018;2023-02-28T14:06:58;7.30;99.90
23803;DHT22;12082;51.786;6.018;2023-02-28T14:09:28;7.20;99.90
23803;DHT22;12082;51.786;6.018;2023-02-28T14:11:54;7.20;99.90
23803;DHT22;12082;51.786;6.018;2023-02-28T14:17:05;7.10;99.90
23803;DHT22;12082;51.786;6.018;2023-02-28T14:19:34;7.20;99.90
23803;DHT22;12082;51.786;6.018;2023-02-28T14:25:09;7.20;99.90
23803;DHT22;12082;51.786;6.018;2023-02-28T14:27:37;7.30;99.90
23803;DHT22;12082;51.786;6.018;2023-02-28T14:41:16;7.60;99.90
23803;DHT22;12082;51.786;6.018;2023-02-28T14:43:59;7.50;99.90
23803;DHT22;12082;51.786;6.018;2023-02-28T14:46:37;7.50;99.90
23803;DHT22;12082;51.786;6.018;2023-02-28T14:49:05;7.50;99.90
23803;DHT22;12082;51.786;6.018;2023-02-28T14:51:33;7.50;99.90
23803;DHT22;12082;51.786;6.018;2023-02-28T14:54:01;7.30;99.90
23803;DHT22;12082;51.786;6.018;2023-02-28T14:56:35;7.40;99.90
23803;DHT22;12082;51.786;6.018;2023-02-28T14:59:02;7.70;99.70
23803;DHT22;12082;51.786;6.018;2023-02-28T15:01:28;8.00;99.90
23803;DHT22;12082;51.786;6.018;2023-02-28T15:04:05;8.50;99.90
23803;DHT22;12082;51.786;6.018;2023-02-28T15:06:32;8.80;99.90
23803;DHT22;12082;51.786;6.018;2023-02-28T15:09:14;9.60;99.50
23803;DHT22;12082;51.786;6.018;2023-02-28T15:11:40;9.30;98.50
23803;DHT22;12082;51.786;6.018;2023-02-28T15:14:12;9.30;99.00
23803;DHT22;12082;51.786;6.018;2023-02-28T15:16:41;9.30;99.90
23803;DHT22;12082;51.786;6.018;2023-02-28T15:19:17;9.10;98.90
23803;DHT22;12082;51.786;6.018;2023-02-28T15:21:48;9.40;99.90
23803;DHT22;12082;51.786;6.018;2023-02-28T15:24:19;8.70;99.90
23803;DHT22;12082;51.786;6.018;2023-02-28T15:26:53;8.70;99.90
23803;DHT22;12082;51.786;6.018;2023-02-28T15:29:22;8.40;99.90
23803;DHT22;12082;51.786;6.018;2023-02-28T15:32:16;8.20;99.90
23803;DHT22;12082;51.786;6.018;2023-02-28T15:34:46;7.90;99.90
23803;DHT22;12082;51.786;6.018;2023-02-28T15:39:53;7.60;99.90
23803;DHT22;12082;51.786;6.018;2023-02-28T15:42:22;7.40;99.90
23803;DHT22;12082;51.786;6.018;2023-02-28T15:44:48;7.40;99.90
23803;DHT22;12082;51.786;6.018;2023-02-28T15:47:20;7.10;99.90
23803;DHT22;12082;51.786;6.018;2023-02-28T15:50:13;6.80;99.90
23803;DHT22;12082;51.786;6.018;2023-02-28T15:55:28;6.00;99.90
23803;DHT22;12082;51.786;6.018;2023-02-28T16:00:25;5.60;99.90
23803;DHT22;12082;51.786;6.018;2023-02-28T16:02:51;5.60;99.90
23803;DHT22;12082;51.786;6.018;2023-02-28T16:05:26;5.40;99.90
23803;DHT22;12082;51.786;6.018;2023-02-28T16:08:06;5.30;99.90
23803;DHT22;12082;51.786;6.018;2023-02-28T16:10:36;5.10;99.90
23803;DHT22;12082;51.786;6.018;2023-02-28T16:13:02;5.00;99.90
23803;DHT22;12082;51.786;6.018;2023-02-28T16:15:30;4.80;99.90
23803;DHT22;12082;51.786;6.018;2023-02-28T16:17:57;5.10;99.90
23803;DHT22;12082;51.786;6.018;2023-02-28T16:20:28;4.70;99.90
23803;DHT22;12082;51.786;6.018;2023-02-28T16:22:55;4.60;99.90
23803;DHT22;12082;51.786;6.018;2023-02-28T16:25:38;4.50;99.90
23803;DHT22;12082;51.786;6.018;2023-02-28T16:28:18;4.50;99.90
23803;DHT22;12082;51.786;6.018;2023-02-28T16:30:44;4.50;99.90
23803;DHT22;12082;51.786;6.018;2023-02-28T16:33:10;4.40;99.90
23803;DHT22;12082;51.786;6.018;2023-02-28T16:35:35;4.20;99.90
23803;DHT22;12082;51.786;6.018;2023-02-28T16:38:01;4.10;99.90
23803;DHT22;12082;51.786;6.018;2023-02-28T16:40:27;3.90;99.90
23803;DHT22;12082;51.786;6.018;2023-02-28T16:42:58;4.00;99.90
23803;DHT22;12082;51.786;6.018;2023-02-28T16:45:26;3.90;99.90
23803;DHT22;12082;51.786;6.018;2023-02-28T16:47:53;3.90;99.90
23803;DHT22;12082;51.786;6.018;2023-02-28T16:50:21;3.80;99.90
23803;DHT22;12082;51.786;6.018;2023-02-28T16:52:48;3.60;99.90
23803;DHT22;12082;51.786;6.018;2023-02-28T16:55:15;3.30;99.90
23803;DHT22;12082;51.786;6.018;2023-02-28T16:57:41;3.30;99.90
23803;DHT22;12082;51.786;6.018;2023-02-28T17:00:10;3.10;99.90
23803;DHT22;12082;51.786;6.018;2023-02-28T17:02:36;2.90;99.90
23803;DHT22;12082;51.786;6.018;2023-02-28T17:05:02;2.70;99.90
23803;DHT22;12082;51.786;6.018;2023-02-28T17:07:29;2.60;99.90
23803;DHT22;12082;51.786;6.018;2023-02-28T17:09:54;2.30;99.90
23803;DHT22;12082;51.786;6.018;2023-02-28T17:12:20;2.10;99.90
23803;DHT22;12082;51.786;6.018;2023-02-28T17:14:45;2.00;99.90
23803;DHT22;12082;51.786;6.018;2023-02-28T17:17:17;1.90;99.90
23803;DHT22;12082;51.786;6.018;2023-02-28T17:19:43;1.70;99.90
23803;DHT22;12082;51.786;6.018;2023-02-28T17:22:09;1.80;99.90
23803;DHT22;12082;51.786;6.018;2023-02-28T17:24:35;1.60;99.90
23803;DHT22;12082;51.786;6.018;2023-02-28T17:27:01;1.60;99.90
23803;DHT22;12082;51.786;6.018;2023-02-28T17:29:26;1.60;99.90
23803;DHT22;12082;51.786;6.018;2023-02-28T17:31:52;1.50;99.90
23803;DHT22;12082;51.786;6.018;2023-02-28T17:34:18;1.40;99.90
23803;DHT22;12082;51.786;6.018;2023-02-28T17:36:45;1.40;99.90
23803;DHT22;12082;51.786;6.018;2023-02-28T17:39:12;1.40;99.90
23803;DHT22;12082;51.786;6.018;2023-02-28T17:41:46;1.30;99.90
23803;DHT22;12082;51.786;6.018;2023-02-28T17:44:12;1.30;99.90
23803;DHT22;12082;51.786;6.018;2023-02-28T17:46:37;1.20;99.90
23803;DHT22;12082;51.786;6.018;2023-02-28T17:49:04;1.10;99.90
23803;DHT22;12082;51.786;6.018;2023-02-28T17:51:29;1.00;99.90
23803;DHT22;12082;51.786;6.018;2023-02-28T17:53:55;1.10;99.90
23803;DHT22;12082;51.786;6.018;2023-02-28T17:56:22;0.90;99.90
23803;DHT22;12082;51.786;6.018;2023-02-28T17:58:49;1.10;99.90
23803;DHT22;12082;51.786;6.018;2023-02-28T18:01:15;0.80;99.90
23803;DHT22;12082;51.786;6.018;2023-02-28T18:03:41;0.70;99.90
23803;DHT22;12082;51.786;6.018;2023-02-28T18:06:13;0.80;99.90
23803;DHT22;12082;51.786;6.018;2023-02-28T18:08:40;0.50;99.90
23803;DHT22;12082;51.786;6.018;2023-02-28T18:11:06;0.90;99.90
23803;DHT22;12082;51.786;6.018;2023-02-28T18:13:38;0.60;99.90
23803;DHT22;12082;51.786;6.018;2023-02-28T18:16:04;0.70;99.90
23803;DHT22;12082;51.786;6.018;2023-02-28T18:18:29;0.60;99.90
23803;DHT22;12082;51.786;6.018;2023-02-28T18:20:55;0.50;99.90
23803;DHT22;12082;51.786;6.018;2023-02-28T18:23:20;0.50;99.90
23803;DHT22;12082;51.786;6.018;2023-02-28T18:25:46;0.00;99.90
23803;DHT22;12082;51.786;6.018;2023-02-28T18:28:12;0.20;99.90
23803;DHT22;12082;51.786;6.018;2023-02-28T18:30:37;0.10;99.90
23803;DHT22;12082;51.786;6.018;2023-02-28T18:33:03;0.00;99.90
23803;DHT22;12082;51.786;6.018;2023-02-28T18:35:29;-0.10;99.90
23803;DHT22;12082;51.786;6.018;2023-02-28T18:38:09;0.00;99.90